Terminal Aerodrome Forecast
Issued by NWS

Home | Current Version | Previous Version | Text Only | Print | Product List | Glossary On
Versions: 1 2 3 4 5 6 7 8 9 10 11 12 13 14 15 16 17 18
000
FTUS43 KGRR 022325
TAFAZO
TAF
KAZO 022325Z 0300/0324 30008KT P6SM SKC
     FM030900 24003KT 4SM -SHRA BR VCTS OVC035CB
     FM031500 18006KT P6SM VCTS BKN050CB=

USA.gov is the U.S. government's official web portal to all federal, state and local government web resources and services.